Time;durP1;ratioP1;P1;durP2;ratioP2;P2;SDS_P1;SDS_P2;PMS_P1;PMS_P2;Temp;Humidity;BMP_temperature;BMP_pressure;BME280_temperature;BME280_humidity;BME280_pressure;Samples;Min_cycle;Max_cycle;Signal;HPM_P1;HPM_P2
2022/08/13 00:01:37;;;;;;;9.75;2.67;;;;;;;;;;4823467;29;19985;-53
2022/08/13 00:04:12;;;;;;;6.15;3.28;;;;;;;;;;4823449;29;20495;-50
2022/08/13 00:07:11;;;;;;;9.90;4.13;;;;;;;;;;4823970;29;20113;-47
2022/08/13 00:09:42;;;;;;;9.82;4.78;;;;;;;;;;4823571;29;20411;-53
2022/08/13 00:15:07;;;;;;;6.88;3.10;;;;;;;;;;4823413;29;20042;-52
2022/08/13 00:17:43;;;;;;;6.10;3.00;;;;;;;;;;4823154;29;20055;-47
2022/08/13 00:20:38;;;;;;;7.43;3.10;;;;;;;;;;4836800;29;20122;-50
2022/08/13 00:23:15;;;;;;;9.50;3.80;;;;;;;;;;4840684;29;20058;-52
2022/08/13 00:25:52;;;;;;;11.23;4.30;;;;;;;;;;4840892;29;20064;-54
2022/08/13 00:28:24;;;;;;;8.47;3.70;;;;;;;;;;4841660;29;20046;-48
2022/08/13 00:30:52;;;;;;;9.05;3.97;;;;;;;;;;4841198;29;20502;-53
2022/08/13 00:33:22;;;;;;;6.70;3.35;;;;;;;;;;4841494;29;20062;-52
2022/08/13 00:36:11;;;;;;;5.93;3.30;;;;;;;;;;4841059;29;20042;-54
2022/08/13 00:38:45;;;;;;;7.50;3.58;;;;;;;;;;4841284;29;20038;-52
2022/08/13 00:44:22;;;;;;;6.57;3.13;;;;;;;;;;4840367;29;20116;-49
2022/08/13 00:48:41;;;;;;;9.38;3.30;;;;;;;;;;4841310;29;20060;-47
2022/08/13 00:49:47;;;;;;;9.05;2.97;;;;;;;;;;4841203;29;20046;-51
2022/08/13 00:52:38;;;;;;;6.45;3.28;;;;;;;;;;4841121;29;20078;-52
2022/08/13 00:55:12;;;;;;;9.13;3.55;;;;;;;;;;4840864;29;20065;-52
2022/08/13 00:57:49;;;;;;;7.43;3.50;;;;;;;;;;4844171;29;20398;-53
2022/08/13 01:00:22;;;;;;;5.60;3.30;;;;;;;;;;4845242;29;20128;-54
2022/08/13 01:02:52;;;;;;;7.32;3.03;;;;;;;;;;4844601;29;20141;-53
2022/08/13 01:05:24;;;;;;;5.70;3.28;;;;;;;;;;4844760;29;20042;-50
2022/08/13 01:07:58;;;;;;;7.22;3.67;;;;;;;;;;4844757;29;20049;-54
2022/08/13 01:10:26;;;;;;;5.22;2.90;;;;;;;;;;4844653;29;20465;-53
2022/08/13 01:12:54;;;;;;;7.75;3.33;;;;;;;;;;4844653;29;20037;-53
2022/08/13 01:15:23;;;;;;;6.75;3.28;;;;;;;;;;4844862;29;20136;-44
2022/08/13 01:18:13;;;;;;;8.10;3.65;;;;;;;;;;4844483;29;20042;-54
2022/08/13 01:20:49;;;;;;;8.18;3.47;;;;;;;;;;4829505;29;20407;-50
2022/08/13 01:23:23;;;;;;;5.97;3.08;;;;;;;;;;4825503;29;20140;-49
2022/08/13 01:26:07;;;;;;;7.40;3.15;;;;;;;;;;4826121;29;20060;-51
2022/08/13 01:28:38;;;;;;;7.20;3.65;;;;;;;;;;4826231;29;20050;-48
2022/08/13 01:31:12;;;;;;;5.70;3.13;;;;;;;;;;4825895;29;20387;-52
2022/08/13 01:33:49;;;;;;;6.78;3.15;;;;;;;;;;4824776;29;20068;-50
2022/08/13 01:36:21;;;;;;;5.45;3.15;;;;;;;;;;4825904;29;20091;-53
2022/08/13 01:39:10;;;;;;;5.65;3.35;;;;;;;;;;4825670;29;20567;-52
2022/08/13 01:41:47;;;;;;;7.50;3.55;;;;;;;;;;4825864;29;20042;-51
2022/08/13 01:44:25;;;;;;;8.23;3.47;;;;;;;;;;4825907;29;20046;-54
2022/08/13 01:53:04;;;;;;;6.15;2.88;;;;;;;;;;4825779;29;20050;-51
2022/08/13 01:55:39;;;;;;;6.97;3.33;;;;;;;;;;4825512;29;20500;-51
2022/08/13 01:58:29;;;;;;;6.40;3.00;;;;;;;;;;4825401;29;20042;-53
2022/08/13 02:01:03;;;;;;;8.48;3.88;;;;;;;;;;4825223;29;20046;-53
2022/08/13 02:03:37;;;;;;;9.45;4.50;;;;;;;;;;4825272;29;20422;-48
2022/08/13 02:06:11;;;;;;;9.82;3.22;;;;;;;;;;4825506;29;20051;-50
2022/08/13 02:08:56;;;;;;;7.45;4.35;;;;;;;;;;4825111;29;20054;-53
2022/08/13 02:11:24;;;;;;;7.57;3.75;;;;;;;;;;4825368;29;20046;-51
2022/08/13 02:13:55;;;;;;;5.35;3.20;;;;;;;;;;4825283;29;20046;-50
2022/08/13 02:16:28;;;;;;;6.85;3.88;;;;;;;;;;4825130;29;20121;-54
2022/08/13 02:19:00;;;;;;;9.07;4.00;;;;;;;;;;4827110;29;20058;-53
2022/08/13 02:21:31;;;;;;;7.82;3.58;;;;;;;;;;4843656;29;20046;-53
2022/08/13 02:24:13;;;;;;;6.00;3.13;;;;;;;;;;4843604;29;20054;-53
2022/08/13 02:26:48;;;;;;;6.43;2.65;;;;;;;;;;4843503;29;20128;-54
2022/08/13 02:29:19;;;;;;;5.97;3.75;;;;;;;;;;4843442;29;20049;-52
2022/08/13 02:31:48;;;;;;;10.05;4.07;;;;;;;;;;4843562;29;20046;-43
2022/08/13 02:34:36;;;;;;;7.90;3.08;;;;;;;;;;4843608;29;20502;-44
2022/08/13 02:37:04;;;;;;;5.93;3.20;;;;;;;;;;4842991;29;20102;-43
2022/08/13 02:39:52;;;;;;;6.93;3.53;;;;;;;;;;4843598;29;20052;-43
2022/08/13 02:42:22;;;;;;;5.13;3.15;;;;;;;;;;4843430;29;20044;-43
2022/08/13 02:44:50;;;;;;;8.88;3.47;;;;;;;;;;4843068;29;20046;-43
2022/08/13 02:47:21;;;;;;;7.00;2.97;;;;;;;;;;4843215;29;20554;-45
2022/08/13 02:50:09;;;;;;;6.75;3.13;;;;;;;;;;4843100;29;20077;-43
2022/08/13 02:52:39;;;;;;;8.20;2.88;;;;;;;;;;4840760;29;20133;-43
2022/08/13 02:55:19;;;;;;;7.85;2.97;;;;;;;;;;4824674;29;20388;-43
2022/08/13 02:57:51;;;;;;;5.07;3.00;;;;;;;;;;4809025;29;20099;-44
2022/08/13 03:00:20;;;;;;;7.32;2.97;;;;;;;;;;4824955;29;20137;-42
2022/08/13 03:02:57;;;;;;;6.65;3.20;;;;;;;;;;4824536;29;20126;-44
2022/08/13 03:05:31;;;;;;;5.72;2.70;;;;;;;;;;4824693;29;20042;-43
2022/08/13 03:08:19;;;;;;;6.18;2.80;;;;;;;;;;4824754;29;20042;-45
2022/08/13 03:11:07;;;;;;;6.35;3.03;;;;;;;;;;4810971;29;20043;-54
2022/08/13 03:13:37;;;;;;;5.80;3.03;;;;;;;;;;4824460;29;20050;-42
2022/08/13 03:16:17;;;;;;;5.28;2.63;;;;;;;;;;4824356;29;20046;-44
2022/08/13 03:18:46;;;;;;;6.55;2.20;;;;;;;;;;4824144;29;20074;-50
2022/08/13 03:21:43;;;;;;;4.30;2.40;;;;;;;;;;4842227;29;20077;-45
2022/08/13 03:24:17;;;;;;;4.65;2.60;;;;;;;;;;4827956;29;20452;-43
2022/08/13 03:26:59;;;;;;;6.05;3.50;;;;;;;;;;4823080;29;20490;-45
2022/08/13 03:29:28;;;;;;;8.10;2.80;;;;;;;;;;4824074;29;20043;-46
2022/08/13 03:32:17;;;;;;;5.38;3.15;;;;;;;;;;4823942;29;20043;-43
2022/08/13 03:34:59;;;;;;;5.70;2.92;;;;;;;;;;4823798;29;20529;-46
2022/08/13 03:37:38;;;;;;;6.65;3.95;;;;;;;;;;4823634;29;20118;-41
2022/08/13 03:40:10;;;;;;;8.25;3.70;;;;;;;;;;4823768;29;20050;-44
2022/08/13 03:42:42;;;;;;;8.93;4.07;;;;;;;;;;4822656;29;20058;-42
2022/08/13 03:45:21;;;;;;;5.80;3.35;;;;;;;;;;4823916;29;20049;-43
2022/08/13 03:47:49;;;;;;;4.45;2.97;;;;;;;;;;4824188;29;20050;-44
2022/08/13 03:50:17;;;;;;;5.90;3.22;;;;;;;;;;4823775;29;20038;-41
2022/08/13 03:52:46;;;;;;;5.68;3.08;;;;;;;;;;4823615;29;20070;-42
2022/08/13 03:55:15;;;;;;;5.88;3.13;;;;;;;;;;4823500;29;20042;-42
2022/08/13 03:57:44;;;;;;;6.38;3.25;;;;;;;;;;4823501;29;20054;-44
2022/08/13 04:00:32;;;;;;;4.93;3.05;;;;;;;;;;4823528;29;20145;-42
2022/08/13 04:03:13;;;;;;;6.70;3.55;;;;;;;;;;4823738;29;20079;-44
2022/08/13 04:05:44;;;;;;;4.60;2.92;;;;;;;;;;4823630;29;20054;-42
2022/08/13 04:08:28;;;;;;;6.32;3.67;;;;;;;;;;4823770;29;20121;-41
2022/08/13 04:10:57;;;;;;;54.20;31.17;;;;;;;;;;4823338;29;20085;-42
2022/08/13 04:13:26;;;;;;;18.30;9.98;;;;;;;;;;4823563;29;20042;-42
2022/08/13 04:16:18;;;;;;;7.85;4.53;;;;;;;;;;4823722;29;20042;-42
2022/08/13 04:18:48;;;;;;;12.67;4.90;;;;;;;;;;4824015;29;20050;-42
2022/08/13 04:21:17;;;;;;;7.82;4.63;;;;;;;;;;4841448;29;20049;-43
2022/08/13 04:23:52;;;;;;;8.50;4.28;;;;;;;;;;4841578;29;20074;-41
2022/08/13 04:26:24;;;;;;;8.25;4.25;;;;;;;;;;4841807;29;20053;-42
2022/08/13 04:29:04;;;;;;;6.72;3.58;;;;;;;;;;4841527;29;20166;-42
2022/08/13 04:31:34;;;;;;;10.52;4.00;;;;;;;;;;4841322;29;20069;-49
2022/08/13 04:34:19;;;;;;;9.23;4.18;;;;;;;;;;4841263;29;20590;-43
2022/08/13 04:37:09;;;;;;;8.00;3.63;;;;;;;;;;4841318;29;20038;-42
2022/08/13 04:39:50;;;;;;;8.55;4.00;;;;;;;;;;4823377;29;20133;-45
2022/08/13 04:42:53;;;;;;;6.78;3.63;;;;;;;;;;4823020;29;20050;-41
2022/08/13 04:45:22;;;;;;;8.82;3.25;;;;;;;;;;4823383;29;20039;-42
2022/08/13 04:47:58;;;;;;;17.52;10.18;;;;;;;;;;4823399;29;20034;-42
2022/08/13 04:50:33;;;;;;;12.65;6.50;;;;;;;;;;4822741;29;20393;-43
2022/08/13 04:53:08;;;;;;;5.55;3.17;;;;;;;;;;4823251;29;20123;-42
2022/08/13 04:55:37;;;;;;;5.57;3.13;;;;;;;;;;4823302;29;20054;-42
2022/08/13 04:58:32;;;;;;;8.82;2.60;;;;;;;;;;4823251;29;20111;-42
2022/08/13 05:01:03;;;;;;;8.52;3.40;;;;;;;;;;4822734;29;20054;-42
2022/08/13 05:03:51;;;;;;;11.05;3.33;;;;;;;;;;4823156;29;20050;-43
2022/08/13 05:06:21;;;;;;;6.68;3.05;;;;;;;;;;4823188;29;20081;-45
2022/08/13 05:08:51;;;;;;;5.45;2.30;;;;;;;;;;4823403;29;20038;-42
2022/08/13 05:11:22;;;;;;;10.32;5.18;;;;;;;;;;4822807;29;20046;-42
2022/08/13 05:13:49;;;;;;;7.05;3.85;;;;;;;;;;4823173;29;20088;-47
2022/08/13 05:16:22;;;;;;;6.55;2.35;;;;;;;;;;4823200;29;20074;-42
2022/08/13 05:18:55;;;;;;;4.15;2.45;;;;;;;;;;4824248;29;20060;-42
2022/08/13 05:21:24;;;;;;;4.15;2.40;;;;;;;;;;4839865;29;20080;-42
2022/08/13 05:24:11;;;;;;;5.00;2.17;;;;;;;;;;4839921;29;20092;-43
2022/08/13 05:26:59;;;;;;;4.95;2.35;;;;;;;;;;4840937;29;20098;-42
2022/08/13 05:29:38;;;;;;;5.55;2.50;;;;;;;;;;4841041;29;20045;-41
2022/08/13 05:32:17;;;;;;;11.07;2.60;;;;;;;;;;4840711;29;20054;-42
2022/08/13 05:34:48;;;;;;;4.40;2.40;;;;;;;;;;4841070;29;20503;-42
2022/08/13 05:37:17;;;;;;;4.10;2.40;;;;;;;;;;4840926;29;20042;-42
2022/08/13 05:40:05;;;;;;;4.97;2.13;;;;;;;;;;4841019;29;20046;-42
2022/08/13 05:42:38;;;;;;;4.25;2.20;;;;;;;;;;4841529;29;20090;-42
2022/08/13 05:45:10;;;;;;;11.40;4.53;;;;;;;;;;4844275;29;20046;-42
2022/08/13 05:47:50;;;;;;;5.20;2.75;;;;;;;;;;4844318;29;20045;-44
2022/08/13 05:50:17;;;;;;;4.67;2.30;;;;;;;;;;4844172;29;20499;-40
2022/08/13 05:52:45;;;;;;;10.50;2.10;;;;;;;;;;4844250;29;20042;-42
2022/08/13 05:55:25;;;;;;;5.55;1.98;;;;;;;;;;4844348;29;20045;-43
2022/08/13 05:58:12;;;;;;;4.97;2.15;;;;;;;;;;4844199;29;20041;-43
2022/08/13 06:03:41;;;;;;;6.20;3.92;;;;;;;;;;4844056;29;20495;-43
2022/08/13 06:06:29;;;;;;;5.00;2.33;;;;;;;;;;4843966;29;20072;-43
2022/08/13 06:09:02;;;;;;;4.47;2.38;;;;;;;;;;4843695;29;20054;-43
2022/08/13 06:11:40;;;;;;;5.00;2.85;;;;;;;;;;4843714;29;20080;-42
2022/08/13 06:14:31;;;;;;;5.32;2.13;;;;;;;;;;4843924;29;20053;-43
2022/08/13 06:17:00;;;;;;;4.22;2.00;;;;;;;;;;4843696;29;20052;-42
2022/08/13 06:19:38;;;;;;;4.82;2.15;;;;;;;;;;4841967;29;20042;-42
2022/08/13 06:22:11;;;;;;;4.85;2.08;;;;;;;;;;4843387;29;20057;-45
2022/08/13 06:24:39;;;;;;;3.53;1.88;;;;;;;;;;4823882;29;20400;-43
2022/08/13 06:27:21;;;;;;;3.40;1.67;;;;;;;;;;4825395;29;20448;-43
2022/08/13 06:30:10;;;;;;;3.58;1.80;;;;;;;;;;4825116;29;20046;-43
2022/08/13 06:32:40;;;;;;;17.90;9.57;;;;;;;;;;4824844;29;20518;-42
2022/08/13 06:35:28;;;;;;;6.05;3.00;;;;;;;;;;4825168;29;20038;-42
2022/08/13 06:38:13;;;;;;;5.10;1.70;;;;;;;;;;4825089;29;20598;-44
2022/08/13 06:40:48;;;;;;;3.22;1.42;;;;;;;;;;4824933;29;20063;-48
2022/08/13 06:43:17;;;;;;;2.80;1.58;;;;;;;;;;4824937;29;20050;-45
2022/08/13 06:45:47;;;;;;;3.45;1.50;;;;;;;;;;4825195;29;20429;-43
2022/08/13 06:48:18;;;;;;;3.03;1.42;;;;;;;;;;4824991;29;20141;-43
2022/08/13 06:51:07;;;;;;;4.50;1.27;;;;;;;;;;4824662;29;20133;-43
2022/08/13 06:53:43;;;;;;;2.75;1.35;;;;;;;;;;4824154;29;20499;-43
2022/08/13 06:56:31;;;;;;;3.25;1.33;;;;;;;;;;4836572;29;20137;-43
2022/08/13 06:59:04;;;;;;;5.68;1.60;;;;;;;;;;4824763;29;20507;-43
2022/08/13 07:01:45;;;;;;;4.43;1.33;;;;;;;;;;4824548;29;20047;-42
2022/08/13 07:04:33;;;;;;;2.92;1.20;;;;;;;;;;4824666;29;20126;-42
2022/08/13 07:07:04;;;;;;;2.33;1.20;;;;;;;;;;4824695;29;20053;-51
2022/08/13 07:09:32;;;;;;;6.55;1.40;;;;;;;;;;4824822;29;20042;-42
2022/08/13 07:12:12;;;;;;;2.08;1.00;;;;;;;;;;4824250;29;20499;-50
2022/08/13 07:14:42;;;;;;;2.67;1.17;;;;;;;;;;4823550;29;20035;-42
2022/08/13 07:17:28;;;;;;;2.25;1.13;;;;;;;;;;4824610;29;20049;-42
2022/08/13 07:20:04;;;;;;;2.90;1.48;;;;;;;;;;4814405;29;20055;-41
2022/08/13 07:22:35;;;;;;;3.60;1.25;;;;;;;;;;4806383;29;20051;-43
2022/08/13 07:25:25;;;;;;;4.32;1.13;;;;;;;;;;4824708;29;20073;-44
2022/08/13 07:28:15;;;;;;;2.30;1.25;;;;;;;;;;4824197;29;20050;-42
2022/08/13 07:31:06;;;;;;;3.50;1.50;;;;;;;;;;4823976;29;20050;-43
2022/08/13 07:33:48;;;;;;;3.08;1.10;;;;;;;;;;4824284;29;20038;-42
2022/08/13 07:36:27;;;;;;;2.33;1.00;;;;;;;;;;4824321;29;20042;-43
2022/08/13 07:38:59;;;;;;;3.97;1.48;;;;;;;;;;4823989;29;20551;-42
2022/08/13 07:41:37;;;;;;;2.47;1.05;;;;;;;;;;4823899;29;20080;-42
2022/08/13 07:44:24;;;;;;;1.58;0.70;;;;;;;;;;4824330;29;20038;-42
2022/08/13 07:46:57;;;;;;;3.83;1.13;;;;;;;;;;4824221;29;20507;-42
2022/08/13 07:49:26;;;;;;;21.63;11.63;;;;;;;;;;4824142;29;20070;-41
2022/08/13 07:52:13;;;;;;;3.72;1.52;;;;;;;;;;4823914;29;20054;-43
2022/08/13 07:54:44;;;;;;;3.10;0.90;;;;;;;;;;4823788;29;20102;-43
2022/08/13 07:57:20;;;;;;;2.72;0.80;;;;;;;;;;4823587;29;20515;-42
2022/08/13 08:00:08;;;;;;;2.92;0.80;;;;;;;;;;4823727;29;20074;-42
2022/08/13 08:02:44;;;;;;;2.05;0.82;;;;;;;;;;4823602;29;20046;-42
2022/08/13 08:05:13;;;;;;;2.30;0.60;;;;;;;;;;4823520;29;20046;-43
2022/08/13 08:07:41;;;;;;;0.98;0.50;;;;;;;;;;4823847;29;20500;-42
2022/08/13 08:10:29;;;;;;;8.20;0.85;;;;;;;;;;4823617;29;20517;-42
2022/08/13 08:13:00;;;;;;;1.98;0.63;;;;;;;;;;4823570;29;20456;-42
2022/08/13 08:15:27;;;;;;;2.17;0.73;;;;;;;;;;4823593;29;20499;-42
2022/08/13 08:18:15;;;;;;;3.58;0.80;;;;;;;;;;4822169;29;20054;-44
2022/08/13 08:21:06;;;;;;;1.38;0.70;;;;;;;;;;4840554;29;20425;-44
2022/08/13 08:24:01;;;;;;;1.98;0.60;;;;;;;;;;4841464;29;20080;-42
2022/08/13 08:26:47;;;;;;;;;;;;;;;;;;4841840;29;20049;-42
2022/08/13 08:29:16;;;;;;;2.08;0.70;;;;;;;;;;4841183;29;20409;-42
2022/08/13 08:31:49;;;;;;;1.73;0.60;;;;;;;;;;4841643;29;20444;-43
2022/08/13 08:34:28;;;;;;;0.80;0.50;;;;;;;;;;4841437;29;20286;-42
2022/08/13 08:36:56;;;;;;;2.38;0.80;;;;;;;;;;4841442;29;20570;-42
2022/08/13 08:44:56;;;;;;;2.10;0.50;;;;;;;;;;4841438;29;20056;-43
2022/08/13 08:47:31;;;;;;;1.27;0.60;;;;;;;;;;4841301;29;20053;-43
2022/08/13 08:50:22;;;;;;;1.10;0.45;;;;;;;;;;4841069;29;20128;-43
2022/08/13 08:56:04;;;;;;;2.95;0.70;;;;;;;;;;4841502;29;20117;-42
2022/08/13 08:58:41;;;;;;;1.27;0.70;;;;;;;;;;4840939;29;20098;-42
2022/08/13 09:01:13;;;;;;;1.83;0.50;;;;;;;;;;4840695;29;20054;-47
2022/08/13 09:03:43;;;;;;;1.48;0.60;;;;;;;;;;4841041;29;20049;-45
2022/08/13 09:06:28;;;;;;;1.52;0.65;;;;;;;;;;4841326;29;20129;-42
2022/08/13 09:09:17;;;;;;;1.27;0.50;;;;;;;;;;4841098;29;20046;-43
2022/08/13 09:11:48;;;;;;;2.25;0.80;;;;;;;;;;4840962;29;20142;-43
2022/08/13 09:14:26;;;;;;;2.35;0.60;;;;;;;;;;4825719;29;20048;-43
2022/08/13 09:16:57;;;;;;;2.17;0.60;;;;;;;;;;4841181;29;20574;-42
2022/08/13 09:19:25;;;;;;;3.30;0.60;;;;;;;;;;4839237;29;20125;-43
2022/08/13 09:22:17;;;;;;;1.98;0.60;;;;;;;;;;4826390;29;20513;-41
2022/08/13 09:24:56;;;;;;;1.17;0.60;;;;;;;;;;4826421;29;20077;-43
2022/08/13 09:27:28;;;;;;;4.55;0.70;;;;;;;;;;4826192;29;20051;-43
2022/08/13 09:30:16;;;;;;;0.95;0.50;;;;;;;;;;4826242;29;20046;-42
2022/08/13 09:32:56;;;;;;;0.98;0.60;;;;;;;;;;4826155;29;20035;-42
2022/08/13 09:35:26;;;;;;;3.53;0.70;;;;;;;;;;4826300;29;20055;-43
2022/08/13 09:38:00;;;;;;;2.58;0.90;;;;;;;;;;4825958;29;20563;-48
2022/08/13 09:40:30;;;;;;;2.60;0.57;;;;;;;;;;4825955;29;20514;-42
2022/08/13 09:43:21;;;;;;;1.45;0.70;;;;;;;;;;4825881;29;20042;-44
2022/08/13 09:46:10;;;;;;;1.10;0.68;;;;;;;;;;4825875;29;20071;-42
2022/08/13 09:48:45;;;;;;;2.28;0.73;;;;;;;;;;4825997;29;20061;-42
2022/08/13 09:51:14;;;;;;;1.92;0.57;;;;;;;;;;4825775;29;20046;-43
2022/08/13 09:54:03;;;;;;;2.22;0.90;;;;;;;;;;4825660;29;20038;-45
2022/08/13 09:56:37;;;;;;;1.88;0.50;;;;;;;;;;4825742;29;20049;-46
2022/08/13 09:59:10;;;;;;;2.10;0.98;;;;;;;;;;4825439;29;20526;-42
2022/08/13 10:01:56;;;;;;;2.40;0.65;;;;;;;;;;4825697;29;20112;-46
2022/08/13 10:04:26;;;;;;;2.05;0.88;;;;;;;;;;4825515;29;20047;-43
2022/08/13 10:06:57;;;;;;;1.77;0.80;;;;;;;;;;4825758;29;20125;-43
2022/08/13 10:09:30;;;;;;;2.17;0.60;;;;;;;;;;4825474;29;20050;-42
2022/08/13 10:12:01;;;;;;;2.00;0.90;;;;;;;;;;4825571;29;20130;-41
2022/08/13 10:14:47;;;;;;;2.05;0.80;;;;;;;;;;4825297;29;20046;-42
2022/08/13 10:17:22;;;;;;;1.88;0.70;;;;;;;;;;4825212;29;20053;-41
2022/08/13 10:19:49;;;;;;;4.75;2.33;;;;;;;;;;4833486;29;20061;-41
2022/08/13 10:22:17;;;;;;;2.13;0.75;;;;;;;;;;4843519;29;20048;-43
2022/08/13 10:24:49;;;;;;;;;;;;;;;;;;4843830;29;20565;-44
2022/08/13 10:27:17;;;;;;;4.80;0.90;;;;;;;;;;4843412;29;19932;-44
2022/08/13 10:29:46;;;;;;;1.25;0.60;;;;;;;;;;4843358;29;20849;-43
2022/08/13 10:32:33;;;;;;;1.58;0.73;;;;;;;;;;4843580;29;20479;-44
2022/08/13 10:35:05;;;;;;;1.38;0.75;;;;;;;;;;4843313;29;20049;-43
2022/08/13 10:37:34;;;;;;;1.48;0.70;;;;;;;;;;4843172;29;20140;-43
2022/08/13 10:40:22;;;;;;;2.97;1.20;;;;;;;;;;4843117;29;20049;-44
2022/08/13 10:43:04;;;;;;;1.95;0.65;;;;;;;;;;4842855;29;20054;-44
2022/08/13 10:45:32;;;;;;;1.90;0.80;;;;;;;;;;4843168;29;20046;-44
2022/08/13 10:48:01;;;;;;;2.25;0.70;;;;;;;;;;4843324;29;20139;-44
2022/08/13 10:50:31;;;;;;;3.45;0.60;;;;;;;;;;4842969;29;20048;-43
2022/08/13 10:52:59;;;;;;;1.80;0.70;;;;;;;;;;4842906;29;20387;-43
2022/08/13 10:55:27;;;;;;;1.33;0.68;;;;;;;;;;4843090;29;20499;-43
2022/08/13 10:58:13;;;;;;;2.10;0.73;;;;;;;;;;4841823;29;20068;-44
2022/08/13 11:01:04;;;;;;;2.53;0.88;;;;;;;;;;4841352;29;20125;-44
2022/08/13 11:03:39;;;;;;;19.30;10.25;;;;;;;;;;4840115;29;20049;-44
2022/08/13 11:06:15;;;;;;;5.10;1.30;;;;;;;;;;4842807;29;20056;-44
2022/08/13 11:08:44;;;;;;;1.60;0.60;;;;;;;;;;4842749;29;20049;-44
2022/08/13 11:11:15;;;;;;;2.60;0.70;;;;;;;;;;4842730;29;20065;-44
2022/08/13 11:14:03;;;;;;;1.67;0.82;;;;;;;;;;4842425;29;20058;-45
2022/08/13 11:19:10;;;;;;;2.42;0.70;;;;;;;;;;4840131;29;20084;-43
2022/08/13 11:21:39;;;;;;;2.50;0.77;;;;;;;;;;4824129;29;20050;-43
2022/08/13 11:24:26;;;;;;;3.10;0.77;;;;;;;;;;4824396;29;20550;-43
2022/08/13 11:27:05;;;;;;;4.47;1.38;;;;;;;;;;4823825;29;20529;-44
2022/08/13 11:29:35;;;;;;;2.92;0.82;;;;;;;;;;4823865;29;20095;-44
2022/08/13 11:32:11;;;;;;;26.88;14.55;;;;;;;;;;4823853;29;20107;-43
2022/08/13 11:34:48;;;;;;;6.50;2.13;;;;;;;;;;4823748;29;20061;-47
2022/08/13 11:37:18;;;;;;;1.92;0.75;;;;;;;;;;4823868;29;20053;-45
2022/08/13 11:39:48;;;;;;;1.80;0.80;;;;;;;;;;4823396;29;20058;-44
2022/08/13 11:42:36;;;;;;;1.83;0.90;;;;;;;;;;4823288;29;20038;-50
2022/08/13 11:45:05;;;;;;;2.28;1.17;;;;;;;;;;4823236;29;20077;-44
2022/08/13 11:47:40;;;;;;;2.30;1.00;;;;;;;;;;4823284;29;20507;-44
2022/08/13 11:50:12;;;;;;;2.20;0.70;;;;;;;;;;4823727;29;20117;-44
2022/08/13 11:52:42;;;;;;;1.42;0.70;;;;;;;;;;4823135;29;20083;-43
2022/08/13 11:55:10;;;;;;;1.65;0.75;;;;;;;;;;4823509;29;20046;-43
2022/08/13 11:57:45;;;;;;;3.08;0.80;;;;;;;;;;4823125;29;20072;-42
2022/08/13 12:00:15;;;;;;;6.18;4.03;;;;;;;;;;4823205;29;20070;-44
2022/08/13 12:02:57;;;;;;;2.30;0.90;;;;;;;;;;4823171;29;20047;-43
2022/08/13 12:05:25;;;;;;;3.50;1.25;;;;;;;;;;4823766;29;20069;-46
2022/08/13 12:07:55;;;;;;;2.08;0.80;;;;;;;;;;4823330;29;20038;-42
2022/08/13 12:10:27;;;;;;;8.80;4.17;;;;;;;;;;4823670;29;20046;-52
2022/08/13 12:13:15;;;;;;;15.38;9.38;;;;;;;;;;4822665;29;20111;-58
2022/08/13 12:15:50;;;;;;;18.58;9.90;;;;;;;;;;4823035;29;20051;-47
2022/08/13 12:18:40;;;;;;;4.45;1.65;;;;;;;;;;4821049;29;20050;-45
2022/08/13 12:21:28;;;;;;;3.50;1.02;;;;;;;;;;4804568;29;20050;-45
2022/08/13 12:23:58;;;;;;;2.28;0.80;;;;;;;;;;4804451;29;20086;-44
2022/08/13 12:26:28;;;;;;;3.00;0.90;;;;;;;;;;4804435;29;20043;-43
2022/08/13 12:28:58;;;;;;;2.38;1.10;;;;;;;;;;4804052;29;20072;-45
2022/08/13 12:31:25;;;;;;;2.05;0.73;;;;;;;;;;4805013;29;20062;-46
2022/08/13 12:33:59;;;;;;;1.33;0.60;;;;;;;;;;4805080;29;20473;-45
2022/08/13 12:36:27;;;;;;;3.08;0.77;;;;;;;;;;4804123;29;20407;-44
2022/08/13 12:38:54;;;;;;;2.72;0.88;;;;;;;;;;4818098;29;20054;-46
2022/08/13 12:41:28;;;;;;;4.18;0.80;;;;;;;;;;4821372;29;20046;-49
2022/08/13 12:44:09;;;;;;;3.45;1.10;;;;;;;;;;4821174;29;20508;-44
2022/08/13 12:46:57;;;;;;;1.48;0.73;;;;;;;;;;4821451;29;20051;-45
2022/08/13 12:49:27;;;;;;;22.42;10.80;;;;;;;;;;4821511;29;20119;-48
2022/08/13 12:51:54;;;;;;;4.45;1.88;;;;;;;;;;4820658;29;20062;-45
2022/08/13 12:54:27;;;;;;;2.75;0.82;;;;;;;;;;4822782;29;20119;-44
2022/08/13 12:57:15;;;;;;;2.75;1.00;;;;;;;;;;4822913;29;20078;-45
2022/08/13 13:00:09;;;;;;;4.88;0.88;;;;;;;;;;4822905;29;20046;-46
2022/08/13 13:02:40;;;;;;;2.38;1.05;;;;;;;;;;4822418;29;20042;-46
2022/08/13 13:05:15;;;;;;;2.55;0.75;;;;;;;;;;4822757;29;20046;-49
2022/08/13 13:07:47;;;;;;;4.75;0.80;;;;;;;;;;4822842;29;20050;-44
2022/08/13 13:10:38;;;;;;;3.72;1.00;;;;;;;;;;4822493;29;20051;-44
2022/08/13 13:13:17;;;;;;;2.50;0.85;;;;;;;;;;4822721;29;20062;-43
2022/08/13 13:16:07;;;;;;;2.15;1.02;;;;;;;;;;4822845;29;20507;-44
2022/08/13 13:18:55;;;;;;;2.80;0.73;;;;;;;;;;4823767;29;20046;-43
2022/08/13 13:21:29;;;;;;;2.83;1.13;;;;;;;;;;4840836;29;20053;-43
2022/08/13 13:24:13;;;;;;;2.15;0.90;;;;;;;;;;4840931;29;20054;-43
2022/08/13 13:26:49;;;;;;;3.95;0.90;;;;;;;;;;4840923;29;20053;-43
2022/08/13 13:29:26;;;;;;;2.08;0.70;;;;;;;;;;4840712;29;20110;-43
2022/08/13 13:32:02;;;;;;;1.90;1.00;;;;;;;;;;4840591;29;20161;-44
2022/08/13 13:34:50;;;;;;;2.60;0.90;;;;;;;;;;4839903;29;20137;-43
2022/08/13 13:37:20;;;;;;;2.70;0.80;;;;;;;;;;4839723;29;20050;-43
2022/08/13 13:39:48;;;;;;;3.45;0.75;;;;;;;;;;4839940;29;20046;-44
2022/08/13 13:42:15;;;;;;;3.05;0.85;;;;;;;;;;4838831;29;20121;-43
2022/08/13 13:44:57;;;;;;;2.90;0.82;;;;;;;;;;4838789;29;20498;-45
2022/08/13 13:47:24;;;;;;;6.43;4.07;;;;;;;;;;4839965;29;20076;-50
2022/08/13 13:49:53;;;;;;;3.08;1.40;;;;;;;;;;4840685;29;20054;-43
2022/08/13 13:52:20;;;;;;;2.35;0.70;;;;;;;;;;4839908;29;20103;-43
2022/08/13 13:54:50;;;;;;;4.53;1.23;;;;;;;;;;4839578;29;20045;-43
2022/08/13 13:57:26;;;;;;;12.18;1.42;;;;;;;;;;4840128;29;20253;-45
2022/08/13 14:00:14;;;;;;;1.42;0.70;;;;;;;;;;4840106;29;20049;-45
2022/08/13 14:02:53;;;;;;;3.72;0.80;;;;;;;;;;4839199;29;20503;-44
2022/08/13 14:05:23;;;;;;;2.17;0.90;;;;;;;;;;4843936;29;20406;-44
2022/08/13 14:08:10;;;;;;;2.28;0.90;;;;;;;;;;4843788;29;20046;-50
2022/08/13 14:10:46;;;;;;;3.22;1.20;;;;;;;;;;4827910;29;20461;-45
2022/08/13 14:13:14;;;;;;;2.15;0.85;;;;;;;;;;4843438;29;20102;-46
2022/08/13 14:16:02;;;;;;;4.63;1.33;;;;;;;;;;4843939;29;20037;-45
2022/08/13 14:18:32;;;;;;;2.33;0.95;;;;;;;;;;4843842;29;20145;-53
2022/08/13 14:21:00;;;;;;;2.53;1.00;;;;;;;;;;4824686;29;20572;-53
2022/08/13 14:23:28;;;;;;;2.75;1.00;;;;;;;;;;4825005;29;20518;-46
2022/08/13 14:26:11;;;;;;;3.95;0.98;;;;;;;;;;4824976;29;20049;-47
2022/08/13 14:28:46;;;;;;;1.60;0.80;;;;;;;;;;4824959;29;20046;-45
2022/08/13 14:31:17;;;;;;;2.38;1.10;;;;;;;;;;4824855;29;20087;-54
2022/08/13 14:33:52;;;;;;;2.53;1.05;;;;;;;;;;4824724;29;20122;-45
2022/08/13 14:36:29;;;;;;;2.92;0.90;;;;;;;;;;4824574;29;20042;-49
2022/08/13 14:38:59;;;;;;;1.85;0.90;;;;;;;;;;4824529;29;20038;-51
2022/08/13 14:41:39;;;;;;;3.42;1.20;;;;;;;;;;4824472;29;20050;-50
2022/08/13 14:44:12;;;;;;;3.05;0.88;;;;;;;;;;4824544;29;20511;-44
2022/08/13 14:47:00;;;;;;;12.40;6.93;;;;;;;;;;4824359;29;20044;-47
2022/08/13 14:49:42;;;;;;;3.20;1.50;;;;;;;;;;4824659;29;20061;-46
2022/08/13 14:52:26;;;;;;;3.78;1.20;;;;;;;;;;4824399;29;20042;-49
2022/08/13 14:55:07;;;;;;;5.47;1.42;;;;;;;;;;4824677;29;20061;-45
2022/08/13 14:57:34;;;;;;;3.40;0.95;;;;;;;;;;4824066;29;20478;-54
2022/08/13 15:00:10;;;;;;;2.92;1.00;;;;;;;;;;4824574;29;20047;-50
2022/08/13 15:02:58;;;;;;;3.03;1.05;;;;;;;;;;4824632;29;20467;-51
2022/08/13 15:05:49;;;;;;;3.03;1.00;;;;;;;;;;4824126;29;20053;-53
2022/08/13 15:08:28;;;;;;;3.35;1.00;;;;;;;;;;4824351;29;20495;-49
2022/08/13 15:11:04;;;;;;;1.77;0.93;;;;;;;;;;4823836;29;20483;-52
2022/08/13 15:13:43;;;;;;;1.63;0.80;;;;;;;;;;4824113;29;20059;-45
2022/08/13 15:16:24;;;;;;;2.22;1.05;;;;;;;;;;4823616;29;20050;-48
2022/08/13 15:19:09;;;;;;;2.58;1.20;;;;;;;;;;4826352;29;20052;-57
2022/08/13 15:21:45;;;;;;;3.25;1.00;;;;;;;;;;4842132;29;20094;-53
2022/08/13 15:24:29;;;;;;;2.25;1.00;;;;;;;;;;4841606;29;20089;-52
2022/08/13 15:27:36;;;;;;;3.15;0.95;;;;;;;;;;4841567;29;20525;-54
2022/08/13 15:30:08;;;;;;;3.63;0.90;;;;;;;;;;4842147;29;20125;-48
2022/08/13 15:32:37;;;;;;;;;;;;;;;;;;4841677;29;20046;-48
2022/08/13 15:35:06;;;;;;;4.32;1.55;;;;;;;;;;4841531;29;19924;-50
2022/08/13 15:37:35;;;;;;;2.03;1.10;;;;;;;;;;4841985;29;20528;-52
2022/08/13 15:40:24;;;;;;;2.17;0.93;;;;;;;;;;4838780;29;20041;-52
2022/08/13 15:43:04;;;;;;;3.83;1.00;;;;;;;;;;4838786;29;20052;-52
2022/08/13 15:45:44;;;;;;;3.38;1.33;;;;;;;;;;4838536;29;20042;-53
2022/08/13 15:48:22;;;;;;;2.10;1.00;;;;;;;;;;4838509;29;20045;-54
2022/08/13 15:50:55;;;;;;;2.05;1.00;;;;;;;;;;4837052;29;20058;-50
2022/08/13 15:53:25;;;;;;;2.25;1.17;;;;;;;;;;4838245;29;20053;-49
2022/08/13 15:55:54;;;;;;;2.28;1.05;;;;;;;;;;4839861;29;20760;-54
2022/08/13 15:58:27;;;;;;;3.78;1.27;;;;;;;;;;4839712;29;20057;-53
2022/08/13 16:01:02;;;;;;;2.78;1.10;;;;;;;;;;4839701;29;20046;-44
2022/08/13 16:03:53;;;;;;;2.58;1.55;;;;;;;;;;4840075;29;20046;-52
2022/08/13 16:06:26;;;;;;;4.03;1.33;;;;;;;;;;4840120;29;20098;-54